Latest Weather Observations for Lord Howe Island

IDN60801

Issued at 2:03 am EDT Saturday 29 February 2020 (issued every 10 minutes, with the page automatically refreshed every 10 minutes)

About weather observations | Map of weather stations | Latest weather observations for NSW | Other Formats
Station Details ID: 200839 Name: LORD HOWE ISLAND AERO Lat: -31.54 Lon: 159.08 Height: 5.0 m
Data from the previous 72 hours. | See also: Recent months at Lord Howe Island

Observations are collected in the New South Wales time zone (Eastern Standard Time) which includes daylight savings in the summer period. Therefore 'Rain since 9am' totals and other values are based on the New South Wales time zone, which may differ from local time.

Date/Time
EDT
Temp
°C
App
Temp
°C
Dew
Point
°C
Rel
Hum
%
Delta-T
°C
Wind Press
QNH
hPa
Press
MSL
hPa
Rain since
9am
mm
Dir  Spd
km/h
Gust
km/h
Spd
kts
Gust
kts
29/02:00am 23.5 23.6 20.0 81 2.3 ESE 19 28 10 15 1011.3 1011.3 0.2
29/01:30am 23.7 25.0 20.2 81 2.3 ESE 13 28 7 15 1011.3 1011.3 0.2
29/01:00am 23.9 25.7 20.4 81 2.3 E 11 28 6 15 1011.6 1011.6 0.2
29/12:30am 24.1 25.5 20.4 80 2.4 SE 13 24 7 13 1011.6 1011.6 0.2
29/12:00am 24.0 26.0 20.7 82 2.2 SE 11 28 6 15 1011.6 1011.6 0.2
 
Date/Time
EDT
Temp
°C
App
Temp
°C
Dew
Point
°C
Rel
Hum
%
Delta-T
°C
Wind Press
QNH
hPa
Press
MSL
hPa
Rain since
9am
mm
Dir  Spd
km/h
Gust
km/h
Spd
kts
Gust
kts
28/11:30pm 24.1 26.2 21.0 83 2.0 ESE 11 22 6 12 1011.6 1011.6 0.2
28/11:00pm 23.9 25.6 21.0 84 1.9 ESE 13 32 7 17 1011.4 1011.4 0.2
28/10:30pm 24.2 25.9 20.9 82 2.2 SE 13 30 7 16 1011.2 1011.2 0.2
28/10:00pm 24.2 25.9 20.9 82 2.2 ESE 13 26 7 14 1011.5 1011.5 0.2
28/09:43pm 24.1 25.7 21.4 85 1.8 SSE 15 28 8 15 1011.3 1011.3 0.2
28/09:40pm 24.3 25.9 21.4 84 1.9 SSE 15 28 8 15 1011.3 1011.3 0.2
28/09:30pm 24.2 25.8 21.5 85 1.8 SE 15 28 8 15 1011.2 1011.2 0.2
28/09:25pm 24.3 26.0 21.6 85 1.8 ESE 15 24 8 13 1011.3 1011.3 0.2
28/09:00pm 24.2 25.8 21.5 85 1.8 SE 15 22 8 12 1011.1 1011.1 0.2
28/08:30pm 24.0 26.8 21.5 86 1.7 SE 9 15 5 8 1010.4 1010.4 0.2
28/08:00pm 23.7 26.4 21.4 87 1.5 SE 9 13 5 7 1010.1 1010.1 0.2
28/07:30pm 24.0 26.3 21.3 85 1.8 SE 11 20 6 11 1010.0 1010.0 0.2
28/07:00pm 24.1 27.1 22.0 88 1.4 SE 9 19 5 10 1009.6 1009.6 0.2
28/06:30pm 24.2 26.4 21.9 87 1.5 ESE 13 22 7 12 1009.2 1009.2 0.2
28/06:00pm 24.5 26.0 22.0 86 1.7 SE 17 28 9 15 1008.8 1008.8 0.2
28/05:30pm 24.9 27.3 22.2 85 1.8 ESE 13 30 7 16 1008.3 1008.3 0.2
28/05:00pm 25.0 26.9 22.1 84 1.9 ESE 15 26 8 14 1008.1 1008.1 0.2
28/04:30pm 25.3 26.6 22.4 84 1.9 ESE 19 26 10 14 1007.7 1007.7 0.2
28/04:00pm 25.7 26.7 22.2 81 2.3 ESE 20 32 11 17 1007.5 1007.5 0.2
28/03:30pm 26.3 27.7 22.6 80 2.5 ESE 19 28 10 15 1007.5 1007.5 0.2
28/03:00pm 26.2 27.6 21.8 77 2.9 ESE 17 30 9 16 1007.6 1007.6 0.2
28/02:30pm 26.6 29.2 22.7 79 2.6 E 13 19 7 10 1007.6 1007.6 0.2
28/02:00pm 26.2 28.1 22.1 78 2.8 E 15 24 8 13 1008.2 1008.2 0.2
28/01:30pm 26.3 28.3 21.5 75 3.2 E 13 19 7 10 1008.3 1008.3 0.2
28/01:00pm 26.9 30.1 21.6 72 3.5 ESE 7 13 4 7 1008.5 1008.5 0.2
28/12:30pm 26.0 29.2 21.7 77 2.9 NW 7 13 4 7 1008.4 1008.4 0.2
28/12:00pm 26.0 28.2 21.9 78 2.7 E 13 17 7 9 1008.4 1008.4 0.2
28/11:30am 26.3 30.0 22.2 78 2.8 NNW 6 11 3 6 1008.5 1008.5 0.2
28/11:00am 25.2 28.2 22.7 86 1.7 E 11 15 6 8 1008.4 1008.4 0.0
28/10:30am 25.0 28.3 22.5 86 1.7 E 9 15 5 8 1008.2 1008.2 0.0
28/10:09am 25.0 29.1 22.9 88 1.4 SE 6 9 3 5 1008.5 1008.5 0.0
28/10:00am 24.8 28.7 23.0 90 1.2 WNW 7 11 4 6 1008.4 1008.4 0.0
28/09:42am 24.9 29.5 23.1 90 1.2 SSW 4 7 2 4 1008.4 1008.4 0.0
28/09:30am 24.9 28.7 22.8 88 1.4 WSW 7 9 4 5 1008.5 1008.5 0.0
28/09:00am 24.8 28.7 23.0 90 1.2 WSW 7 9 4 5 1008.6 1008.6 3.6
28/08:30am 23.9 29.0 22.7 93 0.8 CALM 0 0 0 0 1008.3 1008.3 3.6
28/08:00am 22.9 27.2 22.7 99 0.1 S 4 7 2 4 1007.9 1007.9 3.6
28/07:30am 22.5 27.4 22.3 99 0.1 CALM 0 0 0 0 1007.7 1007.7 3.6
28/07:00am 22.1 26.8 21.9 99 0.1 CALM 0 0 0 0 1007.7 1007.7 3.6
28/06:30am 21.9 24.8 21.7 99 0.1 SSW 9 11 5 6 1007.3 1007.3 3.6
28/06:06am 21.9 24.7 21.6 98 0.2 WSW 9 13 5 7 1007.3 1007.3 3.6
28/06:03am 22.0 24.9 21.7 98 0.2 WSW 9 17 5 9 1007.3 1007.3 3.6
28/06:00am 22.0 24.5 21.7 98 0.2 SW 11 17 6 9 1007.3 1007.3 3.6
28/05:50am 22.2 23.9 21.7 97 0.3 SW 15 24 8 13 1007.3 1007.3 3.0
28/05:30am 23.0 26.7 22.5 97 0.3 SSW 7 15 4 8 1006.8 1006.8 2.4
28/05:00am 22.8 26.1 22.5 98 0.2 SSW 9 11 5 6 1006.6 1006.6 2.4
28/04:30am 22.6 26.2 22.4 99 0.1 SSW 7 9 4 5 1006.7 1006.7 2.4
28/04:13am 22.5 26.1 22.3 99 0.1 SSW 7 9 4 5 1006.8 1006.8 2.4
28/04:00am 22.7 26.9 22.4 98 0.2 SW 4 7 2 4 1006.9 1006.9 2.4
28/03:30am 23.1 27.0 22.6 97 0.3 SSW 6 9 3 5 1007.1 1007.1 2.4
28/03:07am 22.6 26.0 21.6 94 0.7 SSW 6 11 3 6 1007.2 1007.2 2.4
28/03:00am 22.6 26.1 21.1 91 1.0 SW 4 9 2 5 1007.2 1007.2 2.4
28/02:47am 23.8 26.8 21.9 89 1.3 NW 9 19 5 10 1007.4 1007.4 1.6
28/02:30am 24.4 27.8 22.7 90 1.1 WNW 9 17 5 9 1007.4 1007.4 0.4
28/02:00am 24.3 28.1 22.4 89 1.3 NNW 6 13 3 7 1007.7 1007.7 0.4
28/01:36am 24.2 27.8 22.3 89 1.3 NW 7 11 4 6 1007.8 1007.8 0.4
28/01:30am 24.0 28.1 22.3 90 1.1 N 4 7 2 4 1007.8 1007.8 0.4
28/01:00am 24.1 27.6 22.2 89 1.3 NNE 7 11 4 6 1007.9 1007.9 0.4
28/12:30am 24.3 28.1 22.4 89 1.3 N 6 15 3 8 1008.5 1008.5 0.4
28/12:00am 24.4 27.9 22.8 91 1.1 N 9 15 5 8 1008.5 1008.5 0.4
 
Date/Time
EDT
Temp
°C
App
Temp
°C
Dew
Point
°C
Rel
Hum
%
Delta-T
°C
Wind Press
QNH
hPa
Press
MSL
hPa
Rain since
9am
mm
Dir  Spd
km/h
Gust
km/h
Spd
kts
Gust
kts
27/11:56pm 24.4 27.9 22.8 91 1.1 N 9 15 5 8 1008.5 1008.5 0.4
27/11:30pm 24.3 28.8 22.9 92 0.9 N 4 9 2 5 1008.1 1008.1 0.4
27/11:20pm 24.2 28.8 22.5 90 1.1 N 2 6 1 3 1008.0 1008.0 0.4
27/11:08pm 24.4 28.2 22.7 90 1.1 NNE 7 11 4 6 1008.0 1008.0 0.4
27/11:00pm 24.4 28.1 22.5 89 1.3 NE 7 11 4 6 1007.9 1007.9 0.4
27/10:38pm 24.5 27.2 22.9 91 1.1 NNE 13 20 7 11 1008.1 1008.1 0.4
27/10:30pm 24.5 27.0 23.1 92 0.9 NNE 15 19 8 10 1008.2 1008.2 0.4
27/10:00pm 24.5 26.2 23.1 92 0.9 NNE 19 22 10 12 1008.3 1008.3 0.4
27/09:30pm 24.6 26.6 23.0 91 1.1 NNE 17 22 9 12 1008.5 1008.5 0.4
27/09:00pm 24.5 26.6 23.1 92 0.9 NE 17 20 9 11 1008.3 1008.3 0.4
27/08:30pm 24.5 27.4 23.1 92 0.9 NE 13 17 7 9 1008.3 1008.3 0.4
27/08:00pm 24.4 27.3 22.5 89 1.3 NNE 11 17 6 9 1008.2 1008.2 0.4
27/07:30pm 24.5 27.2 22.9 91 1.1 NNE 13 19 7 10 1008.2 1008.2 0.4
27/07:00pm 24.3 26.9 22.6 90 1.1 NE 13 19 7 10 1008.2 1008.2 0.4
27/06:30pm 24.3 26.9 22.7 91 1.1 NNE 13 17 7 9 1008.3 1008.3 0.4
27/06:00pm 24.4 27.4 22.7 90 1.1 NNE 11 13 6 7 1008.2 1008.2 0.4
27/05:30pm 24.7 28.7 22.8 89 1.3 ENE 6 7 3 4 1008.0 1008.0 0.4
27/05:00pm 25.1 29.5 22.8 87 1.6 N 4 9 2 5 1008.0 1008.0 0.4
27/04:30pm 25.1 28.9 22.8 87 1.6 NNE 7 13 4 7 1008.0 1008.0 0.4
27/04:00pm 25.1 28.4 23.2 89 1.3 N 11 15 6 8 1007.9 1007.9 0.4
27/03:58pm 25.1 28.0 23.2 89 1.3 NNE 13 15 7 8 1007.9 1007.9 0.4
27/03:47pm 25.1 28.0 23.2 89 1.3 NE 13 19 7 10 1008.0 1008.0 0.4
27/03:30pm 25.6 28.8 23.1 86 1.7 NNE 11 13 6 7 1008.1 1008.1 0.4
27/03:00pm 25.5 28.2 22.8 85 1.8 NNE 13 19 7 10 1008.4 1008.4 0.4
27/02:30pm 25.7 28.5 23.0 85 1.8 NNE 13 19 7 10 1008.6 1008.6 0.4
27/02:00pm 26.1 28.5 23.0 83 2.1 NNE 15 22 8 12 1008.8 1008.8 0.4
27/01:48pm 25.8 27.8 22.9 84 2.0 NNE 17 24 9 13 1008.9 1008.9 0.4
27/01:30pm 27.7 31.0 24.5 83 2.2 NNE 15 19 8 10 1009.2 1009.2 0.4
27/01:21pm 26.8 29.4 23.3 81 2.4 NNE 15 19 8 10 1009.3 1009.3 0.4
27/01:00pm 26.3 28.7 23.0 82 2.2 NNE 15 20 8 11 1009.5 1009.5 0.4
27/12:30pm 27.7 30.1 24.3 82 2.4 NNE 19 22 10 12 1009.6 1009.6 0.4
27/12:00pm 27.1 29.7 24.0 83 2.1 NNE 17 22 9 12 1009.8 1009.8 0.2
27/11:42am 26.0 28.2 23.3 85 1.8 NNE 17 22 9 12 1009.9 1009.9 0.2
27/11:30am 25.9 28.3 23.0 84 2.0 NNE 15 20 8 11 1010.0 1010.0 0.2
27/11:00am 26.7 29.8 24.2 86 1.7 NNE 15 22 8 12 1010.1 1010.1 0.2
27/10:59am 26.7 30.3 24.4 87 1.6 NNE 13 22 7 12 1010.1 1010.1 0.2
27/10:45am 25.6 29.6 23.7 89 1.3 NNE 9 20 5 11 1010.2 1010.2 0.2
27/10:31am 24.8 27.4 22.7 88 1.4 N 13 24 7 13 1010.2 1010.2 0.2
27/10:30am 24.8 27.3 22.5 87 1.5 N 13 24 7 13 1010.2 1010.2 0.2
27/10:13am 27.6 30.4 23.6 79 2.7 NNE 15 22 8 12 1010.2 1010.2 0.0
27/10:00am 26.6 28.4 23.3 82 2.3 NNE 19 22 10 12 1010.3 1010.3 0.0
27/09:30am 26.3 28.2 22.8 81 2.4 NNE 17 22 9 12 1010.2 1010.2 0.0
27/09:00am 25.7 27.1 22.6 83 2.1 NNE 19 24 10 13 1009.9 1009.9 0.0
27/08:30am 25.9 28.8 23.2 85 1.8 NNE 13 24 7 13 1009.9 1009.9 0.0
27/08:00am 25.4 28.5 22.9 86 1.7 NNE 11 19 6 10 1009.7 1009.7 0.0
27/07:50am 25.2 27.8 22.7 86 1.7 NE 13 20 7 11 1009.6 1009.6 0.0
27/07:30am 25.0 28.3 22.5 86 1.7 NNE 9 22 5 12 1009.4 1009.4 0.0
27/07:00am 24.3 26.9 22.7 91 1.1 NNE 13 24 7 13 1009.3 1009.3 0.0
27/06:52am 24.4 27.0 22.7 90 1.1 NNE 13 24 7 13 1009.4 1009.4 0.0
27/06:30am 24.4 27.3 22.5 89 1.3 N 11 17 6 9 1009.5 1009.5 0.0
27/06:05am 24.4 27.8 22.7 90 1.1 NNE 9 17 5 9 1009.4 1009.4 0.0
27/06:00am 24.3 27.3 22.6 90 1.1 NNE 11 15 6 8 1009.4 1009.4 0.0
27/05:30am 24.2 27.0 22.3 89 1.3 NNE 11 17 6 9 1009.2 1009.2 0.0
27/05:00am 24.1 27.3 22.4 90 1.1 NNE 9 11 5 6 1009.3 1009.3 0.0
27/04:30am 24.1 27.9 22.4 90 1.1 N 6 9 3 5 1009.2 1009.2 0.0
27/04:00am 24.2 27.8 22.3 89 1.3 N 7 11 4 6 1009.3 1009.3 0.0
27/03:38am 24.2 27.3 22.1 88 1.4 N 9 17 5 9 1009.4 1009.4 0.0
27/03:30am 24.3 27.7 22.0 87 1.5 N 7 13 4 7 1009.5 1009.5 0.0
27/03:00am 24.3 27.8 21.8 86 1.7 N 6 11 3 6 1009.8 1009.8 0.0
27/02:42am 24.4 27.9 21.9 86 1.7 NE 6 7 3 4 1009.8 1009.8 0.0
27/02:39am 24.4 27.7 21.9 86 1.7 ENE 7 11 4 6 1009.7 1009.7 0.0
27/02:30am 24.4 27.6 21.7 85 1.8 N 7 13 4 7 1009.7 1009.7 0.0
27/02:00am 24.4 27.2 21.5 84 1.9 N 9 19 5 10 1009.8 1009.8 0.0
27/01:32am 24.4 26.0 21.5 84 1.9 N 15 30 8 16 1009.9 1009.9 0.0
27/01:30am 24.4 26.0 21.5 84 1.9 N 15 30 8 16 1009.9 1009.9 0.0
27/01:17am 24.3 26.2 21.4 84 1.9 NNE 13 22 7 12 1009.8 1009.8 0.0
27/01:00am 24.3 25.8 21.2 83 2.0 NNE 15 30 8 16 1010.0 1010.0 0.0
27/12:37am 24.3 26.0 21.0 82 2.2 NNE 13 28 7 15 1010.1 1010.1 0.0
27/12:30am 24.3 24.9 21.0 82 2.2 N 19 32 10 17 1010.2 1010.2 0.0
27/12:00am 24.3 25.2 20.8 81 2.3 N 17 24 9 13 1010.2 1010.2 0.0
 
Date/Time
EDT
Temp
°C
App
Temp
°C
Dew
Point
°C
Rel
Hum
%
Delta-T
°C
Wind Press
QNH
hPa
Press
MSL
hPa
Rain since
9am
mm
Dir  Spd
km/h
Gust
km/h
Spd
kts
Gust
kts
26/11:30pm 24.2 25.4 20.7 81 2.3 N 15 24 8 13 1010.5 1010.5 0.0
26/11:00pm 24.3 25.0 20.4 79 2.5 NNE 17 33 9 18 1010.6 1010.6 0.0
26/10:30pm 24.3 25.9 20.8 81 2.3 NNE 13 24 7 13 1011.0 1011.0 0.0
26/10:00pm 24.3 24.8 20.8 81 2.3 NNE 19 33 10 18 1011.2 1011.2 0.0
26/09:30pm 24.3 25.4 20.4 79 2.5 NNE 15 28 8 15 1011.5 1011.5 0.0
26/09:00pm 24.2 24.4 20.5 80 2.4 NNE 20 35 11 19 1011.5 1011.5 0.0
26/08:30pm 24.2 24.1 20.7 81 2.3 NNE 22 32 12 17 1011.2 1011.2 0.0
26/08:00pm 24.1 24.2 20.4 80 2.4 NNE 20 35 11 19 1011.0 1011.0 0.0
26/07:30pm 24.1 25.5 20.4 80 2.4 NNE 13 24 7 13 1011.0 1011.0 0.0
26/07:00pm 24.2 24.5 20.3 79 2.5 NNE 19 33 10 18 1010.6 1010.6 0.0
26/06:30pm 24.3 23.6 20.2 78 2.7 NNE 24 41 13 22 1010.2 1010.2 0.0
26/06:00pm 24.6 24.8 20.5 78 2.7 NNE 20 37 11 20 1010.3 1010.3 0.0
26/05:30pm 25.0 25.1 20.3 75 3.1 NNE 20 41 11 22 1010.3 1010.3 0.0
26/05:00pm 25.5 25.2 20.3 73 3.4 NNE 22 39 12 21 1010.5 1010.5 0.0
26/04:30pm 25.8 25.2 20.4 72 3.5 NNE 24 41 13 22 1010.6 1010.6 0.0
26/04:00pm 26.0 25.6 21.0 74 3.3 NNE 24 41 13 22 1010.7 1010.7 0.0
26/03:30pm 25.3 25.8 20.8 76 3.0 NE 19 35 10 19 1010.8 1010.8 0.0
26/03:00pm 25.6 25.9 20.8 75 3.2 NNE 20 30 11 16 1011.2 1011.2 0.0
26/02:30pm 25.6 25.0 20.4 73 3.4 NNE 24 39 13 21 1011.5 1011.5 0.0
26/02:00pm 26.1 26.2 21.1 74 3.3 NNE 22 39 12 21 1011.7 1011.7 0.0
26/01:30pm 26.7 27.5 21.7 74 3.3 NE 20 37 11 20 1012.2 1012.2 0.0
26/01:00pm 26.1 26.6 21.1 74 3.3 NNE 20 37 11 20 1012.4 1012.4 0.0
26/12:30pm 26.0 26.0 21.0 74 3.3 NNE 22 35 12 19 1012.7 1012.7 0.0
26/12:00pm 25.4 25.9 20.0 72 3.5 NNE 17 30 9 16 1013.0 1013.0 0.0
26/11:41am 25.6 24.3 20.6 74 3.3 NNE 28 46 15 25 1013.1 1013.1 0.0
26/11:30am 26.1 25.6 21.5 76 3.1 NNE 26 39 14 21 1013.3 1013.3 0.0
26/11:00am 26.0 26.2 22.1 79 2.6 NNE 24 30 13 16 1013.5 1013.5 0.0
26/10:30am 26.1 26.1 21.7 77 2.9 NE 24 32 13 17 1013.7 1013.7 0.0
26/10:21am 25.5 25.3 21.2 77 2.8 NNE 24 33 13 18 1013.7 1013.7 0.0
26/10:00am 25.1 23.9 20.8 77 2.8 NNE 28 32 15 17 1013.7 1013.7 0.0
26/09:30am 24.9 24.4 20.8 78 2.7 NNE 24 32 13 17 1013.8 1013.8 0.0
26/09:00am 24.2 24.2 20.1 78 2.7 NNE 20 33 11 18 1013.8 1013.8 11.8
26/08:30am 24.1 23.1 20.4 80 2.4 NNE 26 30 14 16 1013.8 1013.8 11.8
26/08:00am 24.0 24.5 21.1 84 1.9 NE 20 35 11 19 1013.7 1013.7 11.8
26/07:32am 23.2 22.6 20.5 85 1.8 NE 24 41 13 22 1013.9 1013.9 11.8
26/07:30am 23.1 23.0 20.8 87 1.5 NE 22 41 12 22 1013.8 1013.8 11.8
26/07:00am 23.4 23.2 21.3 88 1.4 NE 24 33 13 18 1013.6 1013.6 11.6
26/06:56am 23.2 22.5 21.1 88 1.4 NE 26 33 14 18 1013.6 1013.6 11.6
26/06:30am 23.3 22.1 20.8 86 1.6 NE 28 32 15 17 1013.6 1013.6 11.6
26/06:00am 23.0 21.5 20.3 85 1.7 NE 28 33 15 18 1013.3 1013.3 11.6
26/05:30am 22.9 21.8 20.2 85 1.7 NE 26 33 14 18 1013.4 1013.4 11.6
26/05:07am 22.9 21.3 20.1 84 1.8 NE 28 35 15 19 1013.1 1013.1 11.6
26/05:00am 22.9 21.4 20.2 85 1.7 NE 28 35 15 19 1013.1 1013.1 11.6
26/04:48am 22.8 20.5 20.1 85 1.7 NE 32 37 17 20 1013.0 1013.0 11.6
26/04:30am 22.0 21.7 20.3 90 1.1 ENE 22 30 12 16 1013.1 1013.1 11.6
26/04:23am 22.2 20.6 20.7 91 1.0 NE 30 41 16 22 1013.2 1013.2 11.6
26/04:08am 22.7 21.5 20.8 89 1.2 ENE 28 35 15 19 1013.3 1013.3 11.6
26/04:00am 22.7 21.4 20.6 88 1.4 NE 28 37 15 20 1013.2 1013.2 11.6
26/03:30am 22.6 20.9 19.9 85 1.7 NE 28 35 15 19 1013.3 1013.3 11.6
26/03:00am 22.7 21.5 20.0 85 1.7 NE 26 33 14 18 1013.6 1013.6 11.6
26/02:30am 22.5 22.1 20.2 87 1.5 NE 22 30 12 16 1014.1 1014.1 11.6
26/02:04am 22.3 22.0 21.1 93 0.8 NE 24 35 13 19 1014.1 1014.1 11.6

Other formats

Comma delimited format used in spreadsheet applications
http://www.bom.gov.au/fwo/IDN60801/IDN60801.94995.axf

JavaScript Object Notation format (JSON) in row-major order
http://www.bom.gov.au/fwo/IDN60801/IDN60801.94995.json

Data quality

Most of these data are generated automatically and are frequently updated. Quality checks on data are not normally performed. It is possible for incorrect values to appear. Refer to information at About Latest Weather Observations and please check the disclaimer before using these data.